Time;durP1;ratioP1;P1;durP2;ratioP2;P2;SDS_P1;SDS_P2;PMS_P1;PMS_P2;Temp;Humidity;BMP_temperature;BMP_pressure;BME280_temperature;BME280_humidity;BME280_pressure;Samples;Min_cycle;Max_cycle;Signal;HPM_P1;HPM_P2
2021/04/07 00:00:12;;;;;;;19.25;4.13;;;;;;;10.94;58.14;99123.50;4977342;28;20034;-77
2021/04/07 00:02:38;;;;;;;13.43;3.58;;;;;;;10.84;57.65;99115.09;4959948;28;20063;-77
2021/04/07 00:05:13;;;;;;;13.80;3.28;;;;;;;10.83;58.38;99105.97;4960471;28;20121;-77
2021/04/07 00:07:39;;;;;;;12.30;3.50;;;;;;;10.89;58.43;99093.25;4960435;28;20030;-77
2021/04/07 00:10:11;;;;;;;12.90;3.97;;;;;;;11.06;58.14;99093.72;4977086;28;20026;-77
2021/04/07 00:12:37;;;;;;;12.95;4.00;;;;;;;11.05;57.91;99089.34;4975715;28;20023;-77
2021/04/07 00:15:09;;;;;;;12.63;3.40;;;;;;;10.88;58.15;99083.31;4960131;28;20041;-77
2021/04/07 00:17:35;;;;;;;12.57;3.55;;;;;;;11.01;58.37;99108.81;4959632;28;20035;-77
2021/04/07 00:20:03;;;;;;;11.70;3.90;;;;;;;11.06;58.79;99115.97;4960719;28;20045;-77
2021/04/07 00:22:28;;;;;;;10.45;3.63;;;;;;;11.06;58.75;99110.41;4957150;29;20043;-77
2021/04/07 00:24:54;;;;;;;19.25;3.97;;;;;;;11.08;58.01;99111.63;4957776;29;20538;-77
2021/04/07 00:27:25;;;;;;;16.48;3.38;;;;;;;11.06;58.90;99104.84;4957756;29;20042;-77
2021/04/07 00:29:51;;;;;;;11.07;3.17;;;;;;;10.98;58.88;99104.03;4957958;29;20027;-77
2021/04/07 00:32:16;;;;;;;12.13;3.25;;;;;;;10.97;58.72;99108.00;4957345;29;20094;-77
2021/04/07 00:34:42;;;;;;;10.23;2.88;;;;;;;10.89;58.10;99101.59;4957779;29;20031;-77
2021/04/07 00:37:07;;;;;;;8.40;2.65;;;;;;;10.96;58.51;99115.53;4957392;29;20031;-77
2021/04/07 00:39:33;;;;;;;14.57;3.83;;;;;;;11.01;57.78;99125.50;4957320;28;20027;-77
2021/04/07 00:42:05;;;;;;;12.70;2.85;;;;;;;11.05;57.83;99122.75;4957744;29;20063;-77
2021/04/07 00:44:31;;;;;;;15.27;3.42;;;;;;;10.97;57.68;99097.69;4957630;29;20110;-77
2021/04/07 00:46:57;;;;;;;9.85;3.38;;;;;;;11.06;57.26;99127.13;4957062;29;20031;-77
2021/04/07 00:49:23;;;;;;;15.65;4.43;;;;;;;11.13;56.84;99129.91;4957469;29;20027;-77
2021/04/07 00:51:49;;;;;;;10.07;3.00;;;;;;;11.12;57.44;99131.13;4956842;29;20058;-76
2021/04/07 00:54:14;;;;;;;15.88;4.10;;;;;;;11.14;57.09;99129.53;4956639;29;20146;-77
2021/04/07 00:56:40;;;;;;;9.45;2.20;;;;;;;11.15;56.44;99131.13;4956104;28;20386;-77
2021/04/07 00:59:06;;;;;;;16.52;3.55;;;;;;;11.14;56.31;99117.63;4956100;29;20050;-77
2021/04/07 01:01:32;;;;;;;13.25;3.40;;;;;;;11.25;55.84;99118.44;4956013;29;20035;-77
2021/04/07 01:04:01;;;;;;;8.85;2.80;;;;;;;11.15;55.67;99103.28;4955947;29;20032;-77
2021/04/07 01:06:27;;;;;;;11.15;3.35;;;;;;;11.28;55.08;99114.84;4956951;28;20035;-77
2021/04/07 01:08:55;;;;;;;16.95;5.28;;;;;;;11.14;56.09;99112.84;4955680;28;20187;-77
2021/04/07 01:11:21;;;;;;;11.20;2.80;;;;;;;11.05;56.46;99111.63;4955946;29;20078;-77
2021/04/07 01:13:46;;;;;;;11.00;2.83;;;;;;;11.00;56.09;99107.22;4955504;28;20504;-77
2021/04/07 01:16:12;;;;;;;7.85;2.50;;;;;;;11.13;55.58;99119.59;4956812;28;20110;-77
2021/04/07 01:18:37;;;;;;;10.05;3.08;;;;;;;11.04;55.79;99096.09;4956559;28;20031;-77
2021/04/07 01:21:06;;;;;;;13.38;3.55;;;;;;;11.16;54.86;99116.03;4955321;29;20182;-77
2021/04/07 01:23:32;;;;;;;10.95;3.03;;;;;;;11.16;55.52;99120.78;4955803;29;20374;-77
2021/04/07 01:25:57;;;;;;;8.23;2.63;;;;;;;11.02;55.91;99116.78;4955229;29;20471;-77
2021/04/07 01:28:23;;;;;;;10.15;3.33;;;;;;;11.04;56.28;99118.38;4954955;28;20019;-77
2021/04/07 01:30:49;;;;;;;11.13;2.65;;;;;;;11.07;56.24;99123.13;4955122;29;20039;-77
2021/04/07 01:33:25;;;;;;;8.25;2.55;;;;;;;11.00;56.42;99119.13;4955417;29;20118;-77
2021/04/07 01:35:52;;;;;;;14.75;2.83;;;;;;;11.00;56.13;99118.34;4955336;29;20382;-77
2021/04/07 01:38:21;;;;;;;8.75;2.58;;;;;;;11.11;56.58;99118.38;4955284;28;20024;-77
2021/04/07 01:40:46;;;;;;;13.57;3.05;;;;;;;11.06;56.50;99114.00;4954991;29;20031;-77
2021/04/07 01:43:17;;;;;;;12.40;3.42;;;;;;;10.89;56.15;99098.03;4955021;29;20031;-77
2021/04/07 01:45:45;;;;;;;11.20;2.63;;;;;;;11.04;56.77;99115.59;4955933;28;20058;-77
2021/04/07 01:48:12;;;;;;;12.57;3.38;;;;;;;11.06;56.71;99118.75;4955183;29;20034;-77
2021/04/07 01:50:42;;;;;;;13.30;2.83;;;;;;;11.09;56.60;99104.06;4955033;29;20446;-77
2021/04/07 01:53:13;;;;;;;13.13;3.15;;;;;;;11.21;55.92;99109.28;4954526;29;20035;-77
2021/04/07 01:55:41;;;;;;;10.30;3.00;;;;;;;11.16;56.04;99116.03;4955044;29;20039;-77
2021/04/07 01:58:06;;;;;;;12.32;4.10;;;;;;;11.01;56.41;99115.16;4955313;28;20437;-77
2021/04/07 02:00:33;;;;;;;10.10;3.83;;;;;;;11.17;56.67;99117.59;4954372;29;20121;-77
2021/04/07 02:03:01;;;;;;;14.93;3.83;;;;;;;11.01;56.18;99101.25;4955312;29;20027;-77
2021/04/07 02:05:27;;;;;;;12.60;3.60;;;;;;;11.15;56.50;99108.06;4958405;29;20035;-77
2021/04/07 02:07:53;;;;;;;14.32;3.78;;;;;;;11.25;56.14;99112.88;4956790;28;20114;-77
2021/04/07 02:10:21;;;;;;;9.95;3.13;;;;;;;11.10;56.42;99103.69;4954286;29;20117;-77
2021/04/07 02:12:54;;;;;;;10.15;3.08;;;;;;;11.10;56.42;99112.03;4954575;29;20031;-77
2021/04/07 02:15:22;;;;;;;12.90;3.17;;;;;;;11.01;56.42;99104.03;4954490;29;20046;-77
2021/04/07 02:17:48;;;;;;;14.02;3.70;;;;;;;10.84;57.03;99098.41;4954471;29;20122;-77
2021/04/07 02:20:16;;;;;;;15.65;4.97;;;;;;;10.87;57.05;99098.44;4954745;29;20118;-77
2021/04/07 02:22:45;;;;;;;18.30;7.03;;;;;;;10.87;57.65;99114.34;4938406;29;20059;-77
2021/04/07 02:25:12;;;;;;;16.42;6.78;;;;;;;10.85;57.76;99098.00;4955404;28;20035;-77
2021/04/07 02:27:40;;;;;;;15.52;5.05;;;;;;;11.17;57.38;99116.81;4954357;29;20042;-77
2021/04/07 02:30:11;;;;;;;10.85;3.53;;;;;;;11.09;58.50;99110.44;4954594;29;20027;-77
2021/04/07 02:32:37;;;;;;;16.35;3.58;;;;;;;11.01;58.90;99106.03;4956074;28;20035;-77
2021/04/07 02:35:06;;;;;;;16.27;4.28;;;;;;;11.01;59.18;99104.03;4938579;29;20396;-77
2021/04/07 02:37:32;;;;;;;12.45;4.10;;;;;;;10.62;60.45;99097.50;4954585;28;20039;-77
2021/04/07 02:39:58;;;;;;;12.88;3.10;;;;;;;10.68;60.37;99098.72;4954328;28;20363;-77
2021/04/07 02:42:24;;;;;;;11.25;2.95;;;;;;;10.46;62.58;99101.38;4958409;29;20035;-77
2021/04/07 02:44:50;;;;;;;13.85;4.38;;;;;;;10.46;63.86;99095.81;4959950;28;20038;-77
2021/04/07 02:47:16;;;;;;;15.88;5.97;;;;;;;10.51;64.28;99099.44;4957845;29;20031;-77
2021/04/07 02:49:45;;;;;;;20.45;6.20;;;;;;;10.46;64.67;99097.81;4958570;29;20028;-77
2021/04/07 02:52:13;;;;;;;17.77;4.85;;;;;;;10.36;64.67;99096.56;4959243;28;20463;-77
2021/04/07 02:54:38;;;;;;;14.80;4.00;;;;;;;10.32;64.98;99084.63;4958331;29;20027;-77
2021/04/07 02:57:05;;;;;;;15.68;5.25;;;;;;;10.29;65.32;99079.84;4942185;29;20133;-77
2021/04/07 02:59:32;;;;;;;15.93;3.97;;;;;;;10.20;66.22;99079.34;4958261;29;20478;-76
2021/04/07 03:01:57;;;;;;;13.23;4.65;;;;;;;10.24;66.68;99071.88;4957913;29;20028;-77
2021/04/07 03:04:23;;;;;;;14.90;4.25;;;;;;;10.36;66.24;99057.63;4958375;29;20038;-77
2021/04/07 03:06:48;;;;;;;13.75;3.08;;;;;;;10.37;66.89;99087.03;4958054;28;20098;-77
2021/04/07 03:09:14;;;;;;;17.05;4.22;;;;;;;10.38;66.62;99098.94;4958029;29;20359;-77
2021/04/07 03:11:39;;;;;;;16.13;4.55;;;;;;;10.25;65.90;99089.34;4957613;29;20402;-77
2021/04/07 03:14:05;;;;;;;16.65;4.00;;;;;;;10.18;66.55;99106.75;4958945;28;20382;-77
2021/04/07 03:16:31;;;;;;;22.70;3.97;;;;;;;9.93;67.26;99107.34;4957578;29;20490;-77
2021/04/07 03:18:57;;;;;;;21.38;4.82;;;;;;;10.05;67.27;99108.22;4957587;29;20030;-77
2021/04/07 03:21:23;;;;;;;14.98;4.55;;;;;;;9.94;67.23;99108.94;4957250;29;20051;-77
2021/04/07 03:23:48;;;;;;;19.73;4.53;;;;;;;9.92;66.98;99105.75;4957729;29;20066;-77
2021/04/07 03:26:14;;;;;;;22.02;4.43;;;;;;;9.88;66.13;99079.91;4957493;29;20043;-77
2021/04/07 03:28:39;;;;;;;12.43;3.53;;;;;;;10.07;64.58;99094.75;4957940;28;20031;-77
2021/04/07 03:31:05;;;;;;;20.02;4.07;;;;;;;10.08;66.12;99094.34;4957544;29;20461;-77
2021/04/07 03:33:34;;;;;;;9.70;3.25;;;;;;;9.70;66.65;99109.53;4957314;29;20035;-77
2021/04/07 03:36:01;;;;;;;11.68;3.72;;;;;;;9.39;67.69;99111.59;4957233;29;20063;-77
2021/04/07 03:38:29;;;;;;;6.50;2.55;;;;;;;9.06;68.43;99114.41;4957188;29;20470;-77
2021/04/07 03:40:55;;;;;;;10.10;3.88;;;;;;;8.81;70.23;99128.75;4958398;28;20039;-77
2021/04/07 03:43:25;;;;;;;8.80;1.95;;;;;;;8.70;70.76;99129.81;4957126;29;20064;-77
2021/04/07 03:45:53;;;;;;;7.60;2.15;;;;;;;8.53;71.42;99128.38;4957642;29;20041;-77
2021/04/07 03:48:24;;;;;;;11.93;2.40;;;;;;;8.58;71.80;99139.16;4957007;29;20475;-77
2021/04/07 03:50:54;;;;;;;12.10;3.40;;;;;;;8.47;71.58;99143.72;4956900;29;20055;-77
2021/04/07 03:53:20;;;;;;;4.47;1.90;;;;;;;8.37;71.48;99139.66;4956823;29;20027;-77
2021/04/07 03:55:47;;;;;;;5.97;2.08;;;;;;;8.25;70.92;99137.84;4956939;29;20037;-77
2021/04/07 03:58:15;;;;;;;10.70;2.25;;;;;;;8.10;71.03;99122.19;4957434;29;20031;-78
2021/04/07 04:00:45;;;;;;;4.65;1.90;;;;;;;8.01;71.74;99129.94;4956877;29;20070;-77
2021/04/07 04:03:13;;;;;;;6.38;2.78;;;;;;;8.13;71.77;99154.66;4956767;29;20058;-77
2021/04/07 04:05:38;;;;;;;6.22;1.55;;;;;;;8.29;71.62;99155.31;4957976;28;20106;-77
2021/04/07 04:08:06;;;;;;;11.55;2.50;;;;;;;8.30;71.61;99164.44;4956441;29;20144;-77
2021/04/07 04:10:32;;;;;;;7.45;1.90;;;;;;;8.36;71.24;99166.56;4958129;28;20035;-77
2021/04/07 04:12:57;;;;;;;7.32;2.15;;;;;;;8.45;70.79;99169.06;4957626;28;20023;-77
2021/04/07 04:15:25;;;;;;;4.03;1.65;;;;;;;8.48;69.62;99156.44;4956323;29;20093;-77
2021/04/07 04:17:53;;;;;;;13.95;2.92;;;;;;;8.34;70.13;99157.78;4956765;29;20063;-77
2021/04/07 04:20:19;;;;;;;8.02;2.15;;;;;;;7.77;69.23;99079.28;4956517;29;20078;-77
2021/04/07 04:22:45;;;;;;;6.05;1.55;;;;;;;8.51;67.61;99183.41;4956169;29;20391;-77
2021/04/07 04:25:14;;;;;;;5.95;1.45;;;;;;;8.43;66.57;99187.25;4957980;28;20034;-77
2021/04/07 04:27:42;;;;;;;7.10;1.80;;;;;;;8.41;67.86;99190.38;4959142;29;20027;-77
2021/04/07 04:30:11;;;;;;;10.43;2.38;;;;;;;8.36;68.08;99183.19;4961226;29;20393;-78
2021/04/07 04:32:37;;;;;;;8.15;2.10;;;;;;;8.55;67.83;99223.06;4956515;29;20035;-77
2021/04/07 04:35:03;;;;;;;4.53;2.25;;;;;;;8.65;67.95;99222.44;4956184;29;20039;-77
2021/04/07 04:37:31;;;;;;;5.60;1.98;;;;;;;8.54;69.10;99224.25;4956699;29;20058;-77
2021/04/07 04:39:57;;;;;;;7.13;1.67;;;;;;;8.23;66.44;99219.75;4955836;29;20027;-77
2021/04/07 04:42:22;;;;;;;6.85;1.45;;;;;;;8.19;68.80;99216.13;4956133;29;20027;-77
2021/04/07 04:44:50;;;;;;;6.47;1.52;;;;;;;8.15;69.44;99221.63;4956070;29;20031;-76
2021/04/07 04:47:16;;;;;;;3.85;1.63;;;;;;;8.22;70.49;99226.47;4956243;29;20035;-76
2021/04/07 04:49:41;;;;;;;6.68;1.52;;;;;;;8.22;70.91;99230.03;4955896;29;20444;-76
2021/04/07 04:52:09;;;;;;;2.20;1.30;;;;;;;8.16;69.82;99222.41;4956101;29;20038;-76
2021/04/07 04:54:35;;;;;;;3.70;0.90;;;;;;;8.01;70.25;99202.75;4956091;29;20474;-75
2021/04/07 04:57:00;;;;;;;2.88;1.13;;;;;;;8.20;70.25;99245.41;4955779;29;20038;-76
2021/04/07 04:59:29;;;;;;;4.22;1.40;;;;;;;8.50;70.39;99246.38;4955639;29;20035;-76
2021/04/07 05:01:54;;;;;;;5.65;1.40;;;;;;;8.42;70.45;99254.94;4955143;29;20042;-75
2021/04/07 05:04:20;;;;;;;5.15;1.65;;;;;;;8.22;70.00;99254.97;4954812;28;20031;-76
2021/04/07 05:06:47;;;;;;;2.90;1.02;;;;;;;8.07;69.95;99264.22;4955621;29;20054;-76
2021/04/07 05:09:15;;;;;;;2.42;1.45;;;;;;;8.06;70.21;99273.69;4955861;29;20367;-76
2021/04/07 05:11:40;;;;;;;5.90;1.35;;;;;;;8.11;69.16;99276.97;4955378;29;20122;-76
2021/04/07 05:14:09;;;;;;;6.82;1.73;;;;;;;8.07;69.09;99273.31;4955769;29;20070;-76
2021/04/07 05:16:35;;;;;;;5.30;1.52;;;;;;;7.98;67.94;99291.34;4956008;29;20495;-77
2021/04/07 05:19:03;;;;;;;4.97;1.55;;;;;;;8.01;68.45;99293.38;4955405;29;20039;-77
2021/04/07 05:21:28;;;;;;;5.60;1.45;;;;;;;8.08;69.32;99299.84;4955414;29;20051;-77
2021/04/07 05:23:56;;;;;;;2.20;1.30;;;;;;;8.19;68.53;99286.19;4955616;29;20453;-77
2021/04/07 05:26:21;;;;;;;2.30;1.00;;;;;;;8.30;67.87;99278.06;4955554;29;20063;-77
2021/04/07 05:28:47;;;;;;;2.55;1.33;;;;;;;8.29;67.14;99285.56;4955184;29;20486;-77
2021/04/07 05:31:16;;;;;;;4.63;1.45;;;;;;;8.29;67.54;99288.34;4955696;29;20046;-77
2021/04/07 05:33:43;;;;;;;4.07;1.00;;;;;;;8.72;67.59;99302.97;4955122;29;20031;-77
2021/04/07 05:36:14;;;;;;;2.20;0.85;;;;;;;8.72;66.85;99302.97;4955122;29;20047;-77
2021/04/07 05:38:39;;;;;;;5.00;1.38;;;;;;;8.56;65.45;99294.78;4955389;29;20114;-77
2021/04/07 05:41:06;;;;;;;5.05;1.50;;;;;;;8.53;66.47;99297.50;4955078;29;20435;-77
2021/04/07 05:43:34;;;;;;;3.67;1.13;;;;;;;8.53;66.04;99300.28;4956773;28;20124;-77
2021/04/07 05:45:59;;;;;;;24.33;11.02;;;;;;;8.47;65.84;99298.97;4954980;29;20470;-77
2021/04/07 05:48:25;;;;;;;9.38;3.53;;;;;;;8.66;65.23;99302.47;4954568;28;20029;-78
2021/04/07 05:50:53;;;;;;;2.65;1.42;;;;;;;9.50;63.41;99305.28;4955455;29;20041;-77
2021/04/07 05:53:19;;;;;;;2.75;1.42;;;;;;;9.63;63.18;99314.97;4955854;29;20374;-77
2021/04/07 05:55:49;;;;;;;3.25;1.10;;;;;;;10.73;59.66;99305.03;4954654;29;20073;-77
2021/04/07 05:58:15;;;;;;;3.33;1.52;;;;;;;11.48;56.63;99301.94;4955450;29;20034;-78
2021/04/07 06:00:41;;;;;;;3.25;1.42;;;;;;;12.33;53.69;99305.06;4955927;29;20038;-78
2021/04/07 06:03:08;;;;;;;2.53;1.90;;;;;;;12.94;51.92;99305.06;4956036;28;20074;-78
2021/04/07 06:05:35;;;;;;;3.13;1.80;;;;;;;13.54;49.75;99303.41;4954598;29;20031;-77
2021/04/07 06:08:04;;;;;;;3.88;3.50;;;;;;;13.79;49.32;99303.28;4938847;29;20035;-77
2021/04/07 06:10:31;;;;;;;7.60;2.90;;;;;;;14.18;48.43;99307.91;4954460;29;20038;-78
2021/04/07 06:12:58;;;;;;;1.73;1.00;;;;;;;14.42;47.09;99309.75;4954801;29;20031;-78
2021/04/07 06:15:24;;;;;;;2.38;1.02;;;;;;;14.44;46.07;99326.16;4955871;28;20035;-78
2021/04/07 06:17:57;;;;;;;2.45;2.25;;;;;;;14.12;46.98;99333.53;4954781;29;20027;-78
2021/04/07 06:20:27;;;;;;;2.92;1.30;;;;;;;13.89;47.62;99328.41;4955333;29;20027;-78
2021/04/07 06:22:53;;;;;;;1.63;1.38;;;;;;;13.93;45.78;99325.63;4973454;28;20061;-78
2021/04/07 06:25:19;;;;;;;1.60;1.10;;;;;;;14.87;43.47;99335.06;4958034;28;20086;-77
2021/04/07 06:27:55;;;;;;;0.90;0.90;;;;;;;15.87;42.70;99342.47;4957660;28;20034;-78
2021/04/07 06:30:42;;;;;;;1.75;0.73;;;;;;;16.45;40.66;99343.31;4958115;28;20243;-78
2021/04/07 06:33:15;;;;;;;1.08;0.95;;;;;;;15.89;41.68;99346.47;4973998;28;20104;-77
2021/04/07 06:35:47;;;;;;;1.00;0.90;;;;;;;15.02;43.17;99353.34;4957685;28;20031;-78
2021/04/07 06:38:13;;;;;;;2.35;1.58;;;;;;;16.22;41.36;99358.88;4957870;28;20031;-78
2021/04/07 06:40:39;;;;;;;0.93;0.90;;;;;;;16.83;39.98;99357.22;4957878;28;20027;-78
2021/04/07 06:43:08;;;;;;;1.38;1.00;;;;;;;16.24;41.28;99370.50;4958159;28;20057;-77
2021/04/07 06:45:38;;;;;;;1.80;1.00;;;;;;;14.77;41.84;99384.34;4942867;28;20155;-78
2021/04/07 06:48:04;;;;;;;2.53;0.73;;;;;;;12.76;46.98;99348.94;4974184;28;20058;-78
2021/04/07 06:50:32;;;;;;;3.55;0.90;;;;;;;11.81;49.18;99384.50;4959496;28;20045;-78
2021/04/07 06:53:00;;;;;;;3.95;2.13;;;;;;;11.25;51.71;99391.34;4961934;28;20031;-78
2021/04/07 06:55:26;;;;;;;1.88;1.50;;;;;;;10.87;52.28;99396.19;4960119;28;20078;-79
2021/04/07 06:57:55;;;;;;;0.93;0.93;;;;;;;11.21;52.13;99410.00;4957540;28;20054;-78
2021/04/07 07:00:26;;;;;;;2.70;0.93;;;;;;;11.22;52.44;99403.22;4973521;28;20493;-78
2021/04/07 07:02:59;;;;;;;2.55;1.05;;;;;;;11.60;51.77;99403.88;4957362;28;20034;-78
2021/04/07 07:05:25;;;;;;;1.05;0.95;;;;;;;11.96;50.90;99405.72;4957476;28;20038;-78
2021/04/07 07:07:52;;;;;;;2.45;1.30;;;;;;;12.29;49.66;99409.44;4973685;28;20484;-78
2021/04/07 07:10:20;;;;;;;2.22;1.02;;;;;;;12.86;49.31;99417.94;4974935;28;20166;-78
2021/04/07 07:12:46;;;;;;;3.03;1.95;;;;;;;12.96;48.56;99425.53;4957679;28;20026;-78
2021/04/07 07:15:13;;;;;;;1.13;1.02;;;;;;;13.27;47.35;99428.78;4957229;28;20382;-78
2021/04/07 07:17:39;;;;;;;2.35;0.65;;;;;;;13.20;47.28;99429.53;4974278;28;20492;-78
2021/04/07 07:20:08;;;;;;;4.88;1.10;;;;;;;13.22;48.16;99440.38;4957601;28;20121;-78
2021/04/07 07:22:36;;;;;;;1.70;0.70;;;;;;;12.92;47.90;99432.31;4969719;28;20126;-78
2021/04/07 07:25:05;;;;;;;3.17;1.30;;;;;;;13.09;48.87;99445.50;4955525;28;20039;-78
2021/04/07 07:27:42;;;;;;;0.85;0.52;;;;;;;13.04;48.19;99446.69;4956112;28;20094;-78
2021/04/07 07:30:10;;;;;;;1.90;1.20;;;;;;;12.42;48.83;99454.53;4957249;29;20035;-78
2021/04/07 07:32:37;;;;;;;0.90;0.90;;;;;;;12.19;50.23;99454.81;4957409;29;20063;-79
2021/04/07 07:35:10;;;;;;;2.15;1.08;;;;;;;12.04;50.58;99460.34;4958769;28;20105;-78
2021/04/07 07:37:36;;;;;;;1.88;0.80;;;;;;;12.16;49.36;99433.31;4958016;28;20035;-78
2021/04/07 07:40:05;;;;;;;3.60;1.30;;;;;;;12.31;49.68;99460.06;4957282;29;20546;-78
2021/04/07 07:42:30;;;;;;;3.03;1.58;;;;;;;12.14;50.18;99463.53;4957697;29;20462;-78
2021/04/07 07:44:56;;;;;;;1.25;1.02;;;;;;;11.87;51.36;99472.16;4958858;28;20035;-78
2021/04/07 07:47:30;;;;;;;5.40;1.30;;;;;;;12.64;49.33;99474.94;4957186;29;20130;-78
2021/04/07 07:50:05;;;;;;;2.15;1.00;;;;;;;13.37;47.42;99478.28;4959083;28;20065;-78
2021/04/07 07:52:33;;;;;;;3.42;1.33;;;;;;;13.71;47.34;99483.44;4957369;29;20094;-78
2021/04/07 07:55:00;;;;;;;2.63;1.60;;;;;;;14.19;46.15;99475.38;4957676;29;20027;-78
2021/04/07 07:57:27;;;;;;;3.30;1.52;;;;;;;13.94;46.73;99483.81;4959561;28;20039;-78
2021/04/07 07:59:59;;;;;;;2.15;1.27;;;;;;;14.37;46.23;99483.69;4959168;28;20113;-79
2021/04/07 08:02:30;;;;;;;3.10;1.33;;;;;;;14.39;46.48;99498.88;4957417;29;20031;-78
2021/04/07 08:04:56;;;;;;;2.80;1.35;;;;;;;13.87;47.03;99497.81;4958812;28;20035;-78
2021/04/07 08:07:22;;;;;;;2.17;1.42;;;;;;;13.71;48.47;99505.81;4957300;29;20434;-78
2021/04/07 08:09:48;;;;;;;5.07;1.92;;;;;;;13.13;49.35;99498.56;4957265;28;20027;-79
2021/04/07 08:12:17;;;;;;;11.32;2.20;;;;;;;12.82;49.47;99487.72;4956981;29;20363;-78
2021/04/07 08:14:47;;;;;;;3.88;1.95;;;;;;;12.84;50.91;99515.28;4957071;29;20163;-78
2021/04/07 08:17:13;;;;;;;4.70;1.65;;;;;;;12.41;51.49;99517.06;4958048;28;20031;-78
2021/04/07 08:19:40;;;;;;;7.40;2.83;;;;;;;12.46;52.10;99520.28;4958350;28;20027;-78
2021/04/07 08:22:08;;;;;;;6.65;2.40;;;;;;;12.76;51.28;99525.59;4969801;28;20046;-78
2021/04/07 08:24:33;;;;;;;5.85;2.05;;;;;;;13.10;50.31;99526.09;4975851;28;20043;-78
2021/04/07 08:27:01;;;;;;;2.65;1.70;;;;;;;12.94;49.77;99538.81;4959766;28;20026;-78
2021/04/07 08:29:27;;;;;;;4.80;2.40;;;;;;;12.49;50.74;99515.94;4959726;28;20039;-78
2021/04/07 08:31:53;;;;;;;3.85;2.63;;;;;;;13.20;50.71;99540.47;4960233;28;20023;-78
2021/04/07 08:34:22;;;;;;;6.45;2.40;;;;;;;13.07;50.25;99534.47;4977489;28;20035;-78
2021/04/07 08:36:48;;;;;;;3.83;2.00;;;;;;;12.47;50.13;99544.22;4959754;28;20035;-78
2021/04/07 08:39:16;;;;;;;3.63;1.77;;;;;;;12.43;49.83;99557.34;4942760;28;20092;-79
2021/04/07 08:41:43;;;;;;;4.80;1.65;;;;;;;12.50;49.19;99559.38;4959387;28;20027;-78
2021/04/07 08:44:10;;;;;;;7.55;2.25;;;;;;;13.91;47.36;99556.53;4959972;28;20031;-79
2021/04/07 08:46:42;;;;;;;2.58;1.83;;;;;;;14.14;44.98;99554.91;4959822;28;20124;-79
2021/04/07 08:49:08;;;;;;;6.57;1.67;;;;;;;13.44;47.83;99555.72;4959309;28;20027;-78
2021/04/07 08:51:37;;;;;;;3.85;2.30;;;;;;;13.04;47.86;99552.00;4959518;28;20031;-78
2021/04/07 08:54:06;;;;;;;4.07;1.73;;;;;;;12.15;50.06;99551.63;4976922;28;20027;-78
2021/04/07 08:56:36;;;;;;;7.32;2.47;;;;;;;11.97;49.93;99577.38;4959159;28;20117;-78
2021/04/07 08:59:04;;;;;;;2.50;1.30;;;;;;;11.65;50.62;99577.06;4976938;28;20481;-78
2021/04/07 09:01:29;;;;;;;4.32;1.58;;;;;;;12.40;49.55;99577.66;4975283;28;20027;-78
2021/04/07 09:04:33;;;;;;;5.28;1.80;;;;;;;12.70;47.69;99582.19;4959382;28;20034;-78
2021/04/07 09:07:03;;;;;;;4.75;1.50;;;;;;;13.72;46.00;99589.28;4959056;28;20033;-79
2021/04/07 09:09:35;;;;;;;5.93;2.08;;;;;;;13.27;47.46;99574.06;4959607;28;20117;-78
2021/04/07 09:12:02;;;;;;;6.78;4.85;;;;;;;14.18;44.60;99577.28;4974974;28;20470;-78
2021/04/07 09:14:30;;;;;;;7.07;3.42;;;;;;;14.24;44.76;99589.66;4975915;28;20172;-78
2021/04/07 09:17:05;;;;;;;2.50;2.05;;;;;;;14.40;44.24;99592.03;4976921;28;20398;-79
2021/04/07 09:19:34;;;;;;;6.00;2.22;;;;;;;14.44;44.99;99601.22;4979611;28;20034;-79
2021/04/07 09:22:04;;;;;;;2.45;1.48;;;;;;;13.99;44.49;99605.66;4976731;28;20055;-78
2021/04/07 09:24:42;;;;;;;4.40;1.58;;;;;;;13.33;44.97;99606.78;4956772;28;20090;-78
2021/04/07 09:27:23;;;;;;;3.85;1.50;;;;;;;12.79;47.78;99610.56;4957619;28;20494;-79
2021/04/07 09:29:49;;;;;;;3.05;2.25;;;;;;;13.18;48.05;99609.91;4958887;28;20118;-79
2021/04/07 09:32:16;;;;;;;4.13;1.40;;;;;;;13.37;46.33;99609.59;4958891;29;20058;-79
2021/04/07 09:34:43;;;;;;;3.15;2.15;;;;;;;13.80;45.05;99616.06;4958398;28;20107;-79
2021/04/07 09:37:09;;;;;;;5.30;1.60;;;;;;;13.83;44.20;99617.25;4956498;29;20059;-78
2021/04/07 09:39:40;;;;;;;3.53;1.30;;;;;;;14.42;43.83;99606.41;4957526;28;20038;-79
2021/04/07 09:42:07;;;;;;;5.43;1.40;;;;;;;14.10;44.10;99615.66;4957509;28;20066;-78
2021/04/07 09:44:33;;;;;;;4.55;2.20;;;;;;;14.44;44.32;99623.63;4955052;29;20038;-78
2021/04/07 09:47:03;;;;;;;4.57;1.65;;;;;;;15.73;41.56;99620.31;4956187;28;20071;-78
2021/04/07 09:49:32;;;;;;;5.40;1.80;;;;;;;15.93;40.34;99627.78;4955096;28;20045;-79
2021/04/07 09:51:59;;;;;;;5.22;1.63;;;;;;;15.96;40.13;99626.94;4956315;28;20031;-78
2021/04/07 09:54:30;;;;;;;4.25;1.33;;;;;;;14.93;42.02;99638.72;4957180;29;20038;-79
2021/04/07 09:56:58;;;;;;;3.65;1.55;;;;;;;14.41;43.58;99642.00;4957089;29;20039;-78
2021/04/07 09:59:40;;;;;;;5.28;1.60;;;;;;;13.86;45.06;99636.03;4955096;29;20063;-78
2021/04/07 10:02:14;;;;;;;5.95;1.95;;;;;;;14.52;43.07;99636.41;4956144;28;20421;-79
2021/04/07 10:04:42;;;;;;;4.50;1.73;;;;;;;13.88;44.98;99626.03;4955416;29;20050;-78
2021/04/07 10:07:09;;;;;;;3.25;1.80;;;;;;;13.60;44.95;99642.78;4956693;28;20027;-79
2021/04/07 10:09:35;;;;;;;10.27;2.20;;;;;;;13.87;44.80;99623.66;4955040;28;20031;-79
2021/04/07 10:12:03;;;;;;;3.25;1.67;;;;;;;15.02;42.42;99636.28;4955207;29;20038;-78
2021/04/07 10:14:29;;;;;;;3.03;1.60;;;;;;;13.78;44.50;99654.00;4955361;29;20028;-78
2021/04/07 10:16:54;;;;;;;5.93;1.80;;;;;;;14.22;44.40;99639.66;4955134;29;20023;-79
2021/04/07 10:19:27;;;;;;;2.90;1.60;;;;;;;15.97;41.26;99638.94;4955401;29;20031;-79
2021/04/07 10:22:01;;;;;;;2.65;1.92;;;;;;;17.28;37.69;99642.44;4954730;29;20043;-79
2021/04/07 10:24:26;;;;;;;;;;;;;;;17.46;37.54;99641.41;4955485;29;20042;-79
2021/04/07 10:26:52;;;;;;;4.15;1.58;;;;;;;16.50;38.18;99651.72;4954774;28;19914;-78
2021/04/07 10:29:23;;;;;;;10.50;2.38;;;;;;;16.41;39.16;99652.22;4956902;28;20031;-79
2021/04/07 10:31:53;;;;;;;5.35;1.70;;;;;;;16.22;39.48;99661.22;4955833;28;20024;-78
2021/04/07 10:34:28;;;;;;;3.47;2.10;;;;;;;15.92;39.61;99653.41;4955264;29;20121;-79
2021/04/07 10:36:54;;;;;;;4.57;2.08;;;;;;;14.72;41.44;99656.38;4955126;29;20027;-78
2021/04/07 10:39:23;;;;;;;4.90;2.20;;;;;;;14.82;41.83;99660.38;4956795;29;20147;-79
2021/04/07 10:41:54;;;;;;;5.55;2.83;;;;;;;14.62;42.29;99658.00;4955290;29;20086;-79
2021/04/07 10:44:28;;;;;;;4.05;1.77;;;;;;;14.47;42.57;99662.00;4955021;29;20038;-79
2021/04/07 10:46:54;;;;;;;3.03;2.15;;;;;;;14.24;42.84;99659.63;4956094;29;20518;-79
2021/04/07 10:49:22;;;;;;;5.47;2.47;;;;;;;13.49;43.76;99658.72;4955360;29;20065;-79
2021/04/07 10:52:06;;;;;;;6.70;3.53;;;;;;;13.47;44.71;99667.50;4954975;29;20028;-79
2021/04/07 10:54:32;;;;;;;3.13;2.00;;;;;;;13.02;45.29;99666.09;4957260;28;20027;-79
2021/04/07 10:57:03;;;;;;;3.25;1.80;;;;;;;13.25;45.41;99660.25;4955807;28;20031;-79
2021/04/07 10:59:31;;;;;;;2.10;1.90;;;;;;;13.07;44.94;99666.53;4956777;28;20035;-78
2021/04/07 11:01:58;;;;;;;4.00;1.60;;;;;;;13.00;45.51;99680.47;4956187;28;20390;-79
2021/04/07 11:04:27;;;;;;;9.73;2.50;;;;;;;12.96;46.08;99670.47;4959422;28;20032;-79
2021/04/07 11:07:01;;;;;;;4.13;2.10;;;;;;;13.03;45.88;99674.09;4958376;29;20059;-79
2021/04/07 11:09:29;;;;;;;5.63;2.80;;;;;;;12.81;46.03;99680.75;4959020;29;20422;-79
2021/04/07 11:11:58;;;;;;;6.35;3.97;;;;;;;12.92;45.97;99676.03;4958547;29;20126;-79
2021/04/07 11:14:23;;;;;;;5.88;2.78;;;;;;;12.89;46.42;99678.78;4958414;29;20126;-79
2021/04/07 11:17:02;;;;;;;7.53;2.08;;;;;;;12.97;45.44;99681.25;4959718;28;20054;-79
2021/04/07 11:19:37;;;;;;;6.43;2.80;;;;;;;13.16;46.05;99696.09;4959391;29;20155;-79
2021/04/07 11:22:04;;;;;;;2.45;1.65;;;;;;;13.13;45.85;99685.72;4958099;29;20051;-78
2021/04/07 11:24:30;;;;;;;4.30;2.40;;;;;;;13.34;45.69;99694.22;4957964;29;20378;-79
2021/04/07 11:26:56;;;;;;;2.22;1.63;;;;;;;13.47;45.25;99683.47;4957742;29;20485;-78
2021/04/07 11:29:22;;;;;;;2.60;1.73;;;;;;;13.65;45.07;99700.31;4958166;29;20029;-79
2021/04/07 11:31:51;;;;;;;5.00;2.33;;;;;;;13.26;44.32;99695.34;4957909;29;20035;-79
2021/04/07 11:34:20;;;;;;;7.35;2.70;;;;;;;12.72;45.34;99694.25;4959142;28;20034;-79